sensor_id;sensor_type;location;lat;lon;timestamp;temperature;humidity
6752;DHT22;3413;47.680;9.166;2023-09-08T00:04:41;24.80;75.20
6752;DHT22;3413;47.680;9.166;2023-09-08T00:09:43;24.70;75.10
6752;DHT22;3413;47.680;9.166;2023-09-08T00:14:45;24.70;75.20
6752;DHT22;3413;47.680;9.166;2023-09-08T00:19:47;24.60;75.20
6752;DHT22;3413;47.680;9.166;2023-09-08T00:24:49;24.60;75.20
6752;DHT22;3413;47.680;9.166;2023-09-08T00:29:54;24.60;75.30
6752;DHT22;3413;47.680;9.166;2023-09-08T00:34:55;24.50;75.10
6752;DHT22;3413;47.680;9.166;2023-09-08T00:39:58;24.40;75.10
6752;DHT22;3413;47.680;9.166;2023-09-08T00:45:00;24.40;75.20
6752;DHT22;3413;47.680;9.166;2023-09-08T00:50:03;24.30;75.10
6752;DHT22;3413;47.680;9.166;2023-09-08T00:55:07;24.20;75.10
6752;DHT22;3413;47.680;9.166;2023-09-08T01:00:09;24.20;75.20
6752;DHT22;3413;47.680;9.166;2023-09-08T01:05:13;24.20;75.30
6752;DHT22;3413;47.680;9.166;2023-09-08T01:10:16;24.10;75.20
6752;DHT22;3413;47.680;9.166;2023-09-08T01:15:18;24.00;75.20
6752;DHT22;3413;47.680;9.166;2023-09-08T01:20:26;24.00;75.30
6752;DHT22;3413;47.680;9.166;2023-09-08T01:25:29;23.90;75.30
6752;DHT22;3413;47.680;9.166;2023-09-08T01:30:32;23.80;75.20
6752;DHT22;3413;47.680;9.166;2023-09-08T01:35:35;23.80;75.30
6752;DHT22;3413;47.680;9.166;2023-09-08T01:40:37;23.70;75.30
6752;DHT22;3413;47.680;9.166;2023-09-08T01:45:39;23.70;75.30
6752;DHT22;3413;47.680;9.166;2023-09-08T01:50:41;23.70;75.50
6752;DHT22;3413;47.680;9.166;2023-09-08T01:55:43;23.60;75.40
6752;DHT22;3413;47.680;9.166;2023-09-08T02:00:49;23.50;75.30
6752;DHT22;3413;47.680;9.166;2023-09-08T02:05:51;23.30;75.50
6752;DHT22;3413;47.680;9.166;2023-09-08T02:10:53;23.20;75.40
6752;DHT22;3413;47.680;9.166;2023-09-08T02:15:56;23.20;75.50
6752;DHT22;3413;47.680;9.166;2023-09-08T02:20:59;23.10;75.60
6752;DHT22;3413;47.680;9.166;2023-09-08T02:26:00;23.10;75.50
6752;DHT22;3413;47.680;9.166;2023-09-08T02:31:02;23.10;75.50
6752;DHT22;3413;47.680;9.166;2023-09-08T02:36:05;23.00;75.60
6752;DHT22;3413;47.680;9.166;2023-09-08T02:41:09;23.00;75.60
6752;DHT22;3413;47.680;9.166;2023-09-08T02:46:11;22.90;75.60
6752;DHT22;3413;47.680;9.166;2023-09-08T02:51:14;22.90;75.60
6752;DHT22;3413;47.680;9.166;2023-09-08T02:56:16;22.90;75.60
6752;DHT22;3413;47.680;9.166;2023-09-08T03:01:18;22.90;75.60
6752;DHT22;3413;47.680;9.166;2023-09-08T03:06:23;22.80;75.60
6752;DHT22;3413;47.680;9.166;2023-09-08T03:11:25;22.70;75.50
6752;DHT22;3413;47.680;9.166;2023-09-08T03:16:27;22.60;75.50
6752;DHT22;3413;47.680;9.166;2023-09-08T03:21:29;22.40;75.60
6752;DHT22;3413;47.680;9.166;2023-09-08T03:26:31;22.40;75.70
6752;DHT22;3413;47.680;9.166;2023-09-08T03:31:34;22.40;75.70
6752;DHT22;3413;47.680;9.166;2023-09-08T03:36:36;22.40;75.90
6752;DHT22;3413;47.680;9.166;2023-09-08T03:41:38;22.40;75.70
6752;DHT22;3413;47.680;9.166;2023-09-08T03:46:41;22.40;75.80
6752;DHT22;3413;47.680;9.166;2023-09-08T03:51:43;22.40;75.90
6752;DHT22;3413;47.680;9.166;2023-09-08T03:56:45;22.40;75.80
6752;DHT22;3413;47.680;9.166;2023-09-08T04:01:47;22.40;75.80
6752;DHT22;3413;47.680;9.166;2023-09-08T04:06:49;22.30;75.90
6752;DHT22;3413;47.680;9.166;2023-09-08T04:11:51;22.30;75.90
6752;DHT22;3413;47.680;9.166;2023-09-08T04:16:54;22.20;75.90
6752;DHT22;3413;47.680;9.166;2023-09-08T04:21:56;22.20;75.90
6752;DHT22;3413;47.680;9.166;2023-09-08T04:26:58;22.10;76.00
6752;DHT22;3413;47.680;9.166;2023-09-08T04:32:00;22.10;76.00
6752;DHT22;3413;47.680;9.166;2023-09-08T04:37:02;22.10;76.00
6752;DHT22;3413;47.680;9.166;2023-09-08T04:42:05;22.00;76.00
6752;DHT22;3413;47.680;9.166;2023-09-08T04:47:07;22.00;76.10
6752;DHT22;3413;47.680;9.166;2023-09-08T04:52:11;22.00;76.10
6752;DHT22;3413;47.680;9.166;2023-09-08T04:57:13;21.90;76.00
6752;DHT22;3413;47.680;9.166;2023-09-08T05:02:26;21.90;76.10
6752;DHT22;3413;47.680;9.166;2023-09-08T05:07:28;21.80;76.00
6752;DHT22;3413;47.680;9.166;2023-09-08T05:12:31;21.70;76.00
6752;DHT22;3413;47.680;9.166;2023-09-08T05:17:34;21.60;76.10
6752;DHT22;3413;47.680;9.166;2023-09-08T05:22:36;21.60;76.20
6752;DHT22;3413;47.680;9.166;2023-09-08T05:27:39;21.60;76.30
6752;DHT22;3413;47.680;9.166;2023-09-08T05:32:41;21.70;76.40
6752;DHT22;3413;47.680;9.166;2023-09-08T05:37:43;21.60;76.30
6752;DHT22;3413;47.680;9.166;2023-09-08T05:42:45;21.60;76.50
6752;DHT22;3413;47.680;9.166;2023-09-08T05:47:47;21.60;76.50
6752;DHT22;3413;47.680;9.166;2023-09-08T05:52:52;21.70;76.70
6752;DHT22;3413;47.680;9.166;2023-09-08T05:57:54;21.70;76.70
6752;DHT22;3413;47.680;9.166;2023-09-08T06:02:56;21.80;76.80
6752;DHT22;3413;47.680;9.166;2023-09-08T06:07:58;21.80;76.90
6752;DHT22;3413;47.680;9.166;2023-09-08T06:13:11;21.90;77.00
6752;DHT22;3413;47.680;9.166;2023-09-08T06:18:15;22.00;77.10
6752;DHT22;3413;47.680;9.166;2023-09-08T06:23:19;22.20;77.30
6752;DHT22;3413;47.680;9.166;2023-09-08T06:28:22;22.20;77.30
6752;DHT22;3413;47.680;9.166;2023-09-08T06:33:24;22.30;77.50
6752;DHT22;3413;47.680;9.166;2023-09-08T06:38:27;22.40;77.60
6752;DHT22;3413;47.680;9.166;2023-09-08T06:43:28;22.50;77.80
6752;DHT22;3413;47.680;9.166;2023-09-08T06:48:39;22.70;78.10
6752;DHT22;3413;47.680;9.166;2023-09-08T06:53:43;22.80;78.30
6752;DHT22;3413;47.680;9.166;2023-09-08T06:58:46;23.00;78.60
6752;DHT22;3413;47.680;9.166;2023-09-08T07:03:47;23.10;78.60
6752;DHT22;3413;47.680;9.166;2023-09-08T07:08:50;23.30;78.80
6752;DHT22;3413;47.680;9.166;2023-09-08T07:13:53;23.40;78.90
6752;DHT22;3413;47.680;9.166;2023-09-08T07:18:56;23.50;79.10
6752;DHT22;3413;47.680;9.166;2023-09-08T07:23:58;23.60;79.20
6752;DHT22;3413;47.680;9.166;2023-09-08T07:29:00;23.70;79.30
6752;DHT22;3413;47.680;9.166;2023-09-08T07:34:03;23.90;79.40
6752;DHT22;3413;47.680;9.166;2023-09-08T07:39:05;24.00;79.40
6752;DHT22;3413;47.680;9.166;2023-09-08T07:44:07;24.20;79.50
6752;DHT22;3413;47.680;9.166;2023-09-08T07:49:09;24.30;79.70
6752;DHT22;3413;47.680;9.166;2023-09-08T07:54:11;24.40;79.80
6752;DHT22;3413;47.680;9.166;2023-09-08T07:59:13;24.70;79.80
6752;DHT22;3413;47.680;9.166;2023-09-08T08:04:15;24.80;79.80
6752;DHT22;3413;47.680;9.166;2023-09-08T08:09:17;24.90;79.80
6752;DHT22;3413;47.680;9.166;2023-09-08T08:14:19;25.00;80.10
6752;DHT22;3413;47.680;9.166;2023-09-08T08:19:21;25.20;80.20
6752;DHT22;3413;47.680;9.166;2023-09-08T08:24:27;25.30;79.90
6752;DHT22;3413;47.680;9.166;2023-09-08T08:29:29;25.60;80.20
6752;DHT22;3413;47.680;9.166;2023-09-08T08:34:31;26.10;81.10
6752;DHT22;3413;47.680;9.166;2023-09-08T08:39:33;26.90;81.40
6752;DHT22;3413;47.680;9.166;2023-09-08T08:44:37;27.50;81.40
6752;DHT22;3413;47.680;9.166;2023-09-08T08:49:40;28.00;81.20
6752;DHT22;3413;47.680;9.166;2023-09-08T08:54:45;28.40;80.90
6752;DHT22;3413;47.680;9.166;2023-09-08T08:59:48;28.80;80.20
6752;DHT22;3413;47.680;9.166;2023-09-08T09:04:52;28.80;80.20
6752;DHT22;3413;47.680;9.166;2023-09-08T09:09:55;28.90;80.70
6752;DHT22;3413;47.680;9.166;2023-09-08T09:14:58;28.80;81.00
6752;DHT22;3413;47.680;9.166;2023-09-08T09:20:19;29.00;81.10
6752;DHT22;3413;47.680;9.166;2023-09-08T09:25:24;29.30;80.30
6752;DHT22;3413;47.680;9.166;2023-09-08T09:30:27;29.30;80.10
6752;DHT22;3413;47.680;9.166;2023-09-08T09:35:47;29.40;79.90
6752;DHT22;3413;47.680;9.166;2023-09-08T09:40:49;29.40;79.70
6752;DHT22;3413;47.680;9.166;2023-09-08T09:45:51;29.50;80.10
6752;DHT22;3413;47.680;9.166;2023-09-08T09:50:55;29.70;79.80
6752;DHT22;3413;47.680;9.166;2023-09-08T09:55:57;29.70;79.80
6752;DHT22;3413;47.680;9.166;2023-09-08T10:00:59;29.80;80.10
6752;DHT22;3413;47.680;9.166;2023-09-08T10:06:03;29.90;80.20
6752;DHT22;3413;47.680;9.166;2023-09-08T10:11:07;30.40;79.90
6752;DHT22;3413;47.680;9.166;2023-09-08T10:16:13;30.40;79.80
6752;DHT22;3413;47.680;9.166;2023-09-08T10:21:18;30.60;79.80
6752;DHT22;3413;47.680;9.166;2023-09-08T10:26:22;30.80;79.80
6752;DHT22;3413;47.680;9.166;2023-09-08T10:31:26;30.90;79.50
6752;DHT22;3413;47.680;9.166;2023-09-08T10:36:29;31.10;79.60
6752;DHT22;3413;47.680;9.166;2023-09-08T10:41:31;31.30;79.50
6752;DHT22;3413;47.680;9.166;2023-09-08T10:46:34;31.50;79.60
6752;DHT22;3413;47.680;9.166;2023-09-08T10:51:36;31.60;79.70
6752;DHT22;3413;47.680;9.166;2023-09-08T10:56:55;31.90;79.80
6752;DHT22;3413;47.680;9.166;2023-09-08T11:01:58;32.00;79.70
6752;DHT22;3413;47.680;9.166;2023-09-08T11:07:00;32.10;79.90
6752;DHT22;3413;47.680;9.166;2023-09-08T11:12:03;32.20;80.50
6752;DHT22;3413;47.680;9.166;2023-09-08T11:17:05;32.40;79.50
6752;DHT22;3413;47.680;9.166;2023-09-08T11:22:07;32.40;79.50
6752;DHT22;3413;47.680;9.166;2023-09-08T11:27:14;32.50;79.50
6752;DHT22;3413;47.680;9.166;2023-09-08T11:32:16;32.20;79.60
6752;DHT22;3413;47.680;9.166;2023-09-08T11:37:18;32.40;79.70
6752;DHT22;3413;47.680;9.166;2023-09-08T11:42:20;32.70;79.50
6752;DHT22;3413;47.680;9.166;2023-09-08T11:47:22;32.60;79.20
6752;DHT22;3413;47.680;9.166;2023-09-08T11:52:24;32.60;79.40
6752;DHT22;3413;47.680;9.166;2023-09-08T11:57:28;32.80;79.60
6752;DHT22;3413;47.680;9.166;2023-09-08T12:02:34;33.10;79.50
6752;DHT22;3413;47.680;9.166;2023-09-08T12:07:37;33.30;80.10
6752;DHT22;3413;47.680;9.166;2023-09-08T12:12:45;33.50;79.30
6752;DHT22;3413;47.680;9.166;2023-09-08T12:17:49;33.70;79.20
6752;DHT22;3413;47.680;9.166;2023-09-08T12:22:51;34.00;79.20
6752;DHT22;3413;47.680;9.166;2023-09-08T12:27:54;34.20;79.30
6752;DHT22;3413;47.680;9.166;2023-09-08T12:32:57;34.20;79.10
6752;DHT22;3413;47.680;9.166;2023-09-08T12:38:02;34.20;79.10
6752;DHT22;3413;47.680;9.166;2023-09-08T12:43:05;34.40;79.00
6752;DHT22;3413;47.680;9.166;2023-09-08T12:48:18;34.40;79.10
6752;DHT22;3413;47.680;9.166;2023-09-08T12:53:20;34.50;79.20
6752;DHT22;3413;47.680;9.166;2023-09-08T12:58:22;34.50;78.80
6752;DHT22;3413;47.680;9.166;2023-09-08T13:03:24;34.70;78.70
6752;DHT22;3413;47.680;9.166;2023-09-08T13:08:26;34.80;78.80
6752;DHT22;3413;47.680;9.166;2023-09-08T13:13:31;35.00;78.80
6752;DHT22;3413;47.680;9.166;2023-09-08T13:18:33;35.10;78.80
6752;DHT22;3413;47.680;9.166;2023-09-08T13:23:39;35.20;78.70
6752;DHT22;3413;47.680;9.166;2023-09-08T13:28:41;35.30;78.60
6752;DHT22;3413;47.680;9.166;2023-09-08T13:33:43;35.40;78.20
6752;DHT22;3413;47.680;9.166;2023-09-08T13:38:44;35.50;77.80
6752;DHT22;3413;47.680;9.166;2023-09-08T13:43:46;35.60;77.60
6752;DHT22;3413;47.680;9.166;2023-09-08T13:48:49;35.10;77.50
6752;DHT22;3413;47.680;9.166;2023-09-08T13:53:52;35.00;77.50
6752;DHT22;3413;47.680;9.166;2023-09-08T13:58:55;35.00;77.50
6752;DHT22;3413;47.680;9.166;2023-09-08T14:03:58;35.00;77.60
6752;DHT22;3413;47.680;9.166;2023-09-08T14:09:12;35.20;77.70
6752;DHT22;3413;47.680;9.166;2023-09-08T14:14:17;35.00;77.10
6752;DHT22;3413;47.680;9.166;2023-09-08T14:19:19;35.00;77.10
6752;DHT22;3413;47.680;9.166;2023-09-08T14:24:21;35.10;76.90
6752;DHT22;3413;47.680;9.166;2023-09-08T14:29:23;34.80;77.10
6752;DHT22;3413;47.680;9.166;2023-09-08T14:34:25;34.80;76.90
6752;DHT22;3413;47.680;9.166;2023-09-08T14:39:27;34.80;76.60
6752;DHT22;3413;47.680;9.166;2023-09-08T14:44:29;34.80;76.70
6752;DHT22;3413;47.680;9.166;2023-09-08T14:49:31;34.90;76.30
6752;DHT22;3413;47.680;9.166;2023-09-08T14:54:32;34.70;76.10
6752;DHT22;3413;47.680;9.166;2023-09-08T14:59:34;34.50;75.80
6752;DHT22;3413;47.680;9.166;2023-09-08T15:04:36;34.30;76.00
6752;DHT22;3413;47.680;9.166;2023-09-08T15:09:38;34.40;76.00
6752;DHT22;3413;47.680;9.166;2023-09-08T15:14:40;34.60;76.00
6752;DHT22;3413;47.680;9.166;2023-09-08T15:19:42;34.70;75.90
6752;DHT22;3413;47.680;9.166;2023-09-08T15:24:44;34.90;75.60
6752;DHT22;3413;47.680;9.166;2023-09-08T15:29:46;35.00;75.60
6752;DHT22;3413;47.680;9.166;2023-09-08T15:34:49;35.00;75.60
6752;DHT22;3413;47.680;9.166;2023-09-08T15:39:51;35.20;75.50
6752;DHT22;3413;47.680;9.166;2023-09-08T15:44:53;35.30;75.50
6752;DHT22;3413;47.680;9.166;2023-09-08T15:49:55;35.30;75.60
6752;DHT22;3413;47.680;9.166;2023-09-08T15:54:57;35.40;75.60
6752;DHT22;3413;47.680;9.166;2023-09-08T15:59:59;35.40;75.70
6752;DHT22;3413;47.680;9.166;2023-09-08T16:05:01;35.30;75.70
6752;DHT22;3413;47.680;9.166;2023-09-08T16:10:03;35.20;75.70
6752;DHT22;3413;47.680;9.166;2023-09-08T16:15:05;35.20;75.80
6752;DHT22;3413;47.680;9.166;2023-09-08T16:20:07;35.40;75.30
6752;DHT22;3413;47.680;9.166;2023-09-08T16:25:09;35.50;75.00
6752;DHT22;3413;47.680;9.166;2023-09-08T16:30:12;35.30;75.60
6752;DHT22;3413;47.680;9.166;2023-09-08T16:35:14;35.30;74.70
6752;DHT22;3413;47.680;9.166;2023-09-08T16:40:16;35.20;74.30
6752;DHT22;3413;47.680;9.166;2023-09-08T16:45:18;35.10;74.10
6752;DHT22;3413;47.680;9.166;2023-09-08T16:50:20;35.10;73.90
6752;DHT22;3413;47.680;9.166;2023-09-08T16:55:21;34.90;73.70
6752;DHT22;3413;47.680;9.166;2023-09-08T17:00:23;34.70;73.80
6752;DHT22;3413;47.680;9.166;2023-09-08T17:05:25;34.70;73.70
6752;DHT22;3413;47.680;9.166;2023-09-08T17:10:27;34.70;73.60
6752;DHT22;3413;47.680;9.166;2023-09-08T17:15:29;34.50;73.70
6752;DHT22;3413;47.680;9.166;2023-09-08T17:20:31;34.30;74.00
6752;DHT22;3413;47.680;9.166;2023-09-08T17:25:33;34.20;74.30
6752;DHT22;3413;47.680;9.166;2023-09-08T17:30:35;34.10;74.40
6752;DHT22;3413;47.680;9.166;2023-09-08T17:35:38;34.00;74.40
6752;DHT22;3413;47.680;9.166;2023-09-08T17:40:40;34.00;74.40
6752;DHT22;3413;47.680;9.166;2023-09-08T17:45:44;34.00;74.40
6752;DHT22;3413;47.680;9.166;2023-09-08T17:50:46;33.90;74.30
6752;DHT22;3413;47.680;9.166;2023-09-08T17:55:48;33.80;74.30
6752;DHT22;3413;47.680;9.166;2023-09-08T18:00:50;33.70;74.30
6752;DHT22;3413;47.680;9.166;2023-09-08T18:05:52;33.40;74.50
6752;DHT22;3413;47.680;9.166;2023-09-08T18:11:02;32.90;74.70
6752;DHT22;3413;47.680;9.166;2023-09-08T18:16:06;32.70;74.70
6752;DHT22;3413;47.680;9.166;2023-09-08T18:21:09;32.60;74.70
6752;DHT22;3413;47.680;9.166;2023-09-08T18:26:12;32.50;74.50
6752;DHT22;3413;47.680;9.166;2023-09-08T18:31:17;32.40;74.50
6752;DHT22;3413;47.680;9.166;2023-09-08T18:36:19;32.20;74.50
6752;DHT22;3413;47.680;9.166;2023-09-08T18:41:21;31.90;74.80
6752;DHT22;3413;47.680;9.166;2023-09-08T18:46:23;31.50;75.00
6752;DHT22;3413;47.680;9.166;2023-09-08T18:51:25;31.40;75.00
6752;DHT22;3413;47.680;9.166;2023-09-08T18:56:27;31.40;75.00
6752;DHT22;3413;47.680;9.166;2023-09-08T19:01:29;31.20;74.90
6752;DHT22;3413;47.680;9.166;2023-09-08T19:06:31;31.10;74.90
6752;DHT22;3413;47.680;9.166;2023-09-08T19:11:33;30.90;74.80
6752;DHT22;3413;47.680;9.166;2023-09-08T19:16:35;30.80;74.90
6752;DHT22;3413;47.680;9.166;2023-09-08T19:21:37;30.60;74.90
6752;DHT22;3413;47.680;9.166;2023-09-08T19:26:39;30.40;74.80
6752;DHT22;3413;47.680;9.166;2023-09-08T19:31:41;30.30;74.90
6752;DHT22;3413;47.680;9.166;2023-09-08T19:36:43;30.20;75.00
6752;DHT22;3413;47.680;9.166;2023-09-08T19:41:45;30.10;75.00
6752;DHT22;3413;47.680;9.166;2023-09-08T19:46:47;29.90;75.10
6752;DHT22;3413;47.680;9.166;2023-09-08T19:51:49;29.80;75.20
6752;DHT22;3413;47.680;9.166;2023-09-08T19:56:51;29.60;75.20
6752;DHT22;3413;47.680;9.166;2023-09-08T20:01:53;29.40;75.20
6752;DHT22;3413;47.680;9.166;2023-09-08T20:06:55;29.30;76.00
6752;DHT22;3413;47.680;9.166;2023-09-08T20:11:59;29.10;75.40
6752;DHT22;3413;47.680;9.166;2023-09-08T20:17:01;29.00;75.50
6752;DHT22;3413;47.680;9.166;2023-09-08T20:22:05;28.90;75.50
6752;DHT22;3413;47.680;9.166;2023-09-08T20:27:07;28.80;75.50
6752;DHT22;3413;47.680;9.166;2023-09-08T20:32:12;28.80;75.50
6752;DHT22;3413;47.680;9.166;2023-09-08T20:37:14;28.60;75.40
6752;DHT22;3413;47.680;9.166;2023-09-08T20:42:16;28.50;75.50
6752;DHT22;3413;47.680;9.166;2023-09-08T20:47:18;28.40;75.50
6752;DHT22;3413;47.680;9.166;2023-09-08T20:52:20;28.30;75.50
6752;DHT22;3413;47.680;9.166;2023-09-08T20:57:22;28.20;75.60
6752;DHT22;3413;47.680;9.166;2023-09-08T21:02:26;28.10;75.60
6752;DHT22;3413;47.680;9.166;2023-09-08T21:07:28;28.00;75.70
6752;DHT22;3413;47.680;9.166;2023-09-08T21:12:30;27.90;75.70
6752;DHT22;3413;47.680;9.166;2023-09-08T21:17:32;27.80;75.80
6752;DHT22;3413;47.680;9.166;2023-09-08T21:22:34;27.70;76.60
6752;DHT22;3413;47.680;9.166;2023-09-08T21:27:37;27.60;75.90
6752;DHT22;3413;47.680;9.166;2023-09-08T21:32:39;27.50;76.00
6752;DHT22;3413;47.680;9.166;2023-09-08T21:37:41;27.40;76.00
6752;DHT22;3413;47.680;9.166;2023-09-08T21:42:43;27.40;76.10
6752;DHT22;3413;47.680;9.166;2023-09-08T21:47:45;27.20;76.10
6752;DHT22;3413;47.680;9.166;2023-09-08T21:52:52;27.10;76.30
6752;DHT22;3413;47.680;9.166;2023-09-08T21:57:54;27.00;76.20
6752;DHT22;3413;47.680;9.166;2023-09-08T22:02:57;26.90;76.30
6752;DHT22;3413;47.680;9.166;2023-09-08T22:07:59;26.80;76.50
6752;DHT22;3413;47.680;9.166;2023-09-08T22:13:01;26.70;76.50
6752;DHT22;3413;47.680;9.166;2023-09-08T22:18:04;26.60;76.50
6752;DHT22;3413;47.680;9.166;2023-09-08T22:23:06;26.60;76.50
6752;DHT22;3413;47.680;9.166;2023-09-08T22:28:07;26.50;76.60
6752;DHT22;3413;47.680;9.166;2023-09-08T22:33:09;26.40;76.60
6752;DHT22;3413;47.680;9.166;2023-09-08T22:38:12;26.30;76.80
6752;DHT22;3413;47.680;9.166;2023-09-08T22:43:14;26.20;76.70
6752;DHT22;3413;47.680;9.166;2023-09-08T22:48:16;26.20;76.80
6752;DHT22;3413;47.680;9.166;2023-09-08T22:53:19;26.20;76.90
6752;DHT22;3413;47.680;9.166;2023-09-08T22:58:22;26.10;76.90
6752;DHT22;3413;47.680;9.166;2023-09-08T23:03:24;26.10;77.00
6752;DHT22;3413;47.680;9.166;2023-09-08T23:08:26;25.90;77.00
6752;DHT22;3413;47.680;9.166;2023-09-08T23:13:28;25.90;77.20
6752;DHT22;3413;47.680;9.166;2023-09-08T23:18:30;25.90;77.20
6752;DHT22;3413;47.680;9.166;2023-09-08T23:23:32;25.80;77.10
6752;DHT22;3413;47.680;9.166;2023-09-08T23:28:36;25.70;77.20
6752;DHT22;3413;47.680;9.166;2023-09-08T23:33:38;25.60;77.40
6752;DHT22;3413;47.680;9.166;2023-09-08T23:38:40;25.60;77.50
6752;DHT22;3413;47.680;9.166;2023-09-08T23:43:42;25.60;77.50
6752;DHT22;3413;47.680;9.166;2023-09-08T23:48:44;25.50;77.40
6752;DHT22;3413;47.680;9.166;2023-09-08T23:53:46;25.50;77.50
6752;DHT22;3413;47.680;9.166;2023-09-08T23:58:48;25.40;77.60
